Time;durP1;ratioP1;P1;durP2;ratioP2;P2;SDS_P1;SDS_P2;PMS_P1;PMS_P2;Temp;Humidity;BMP_temperature;BMP_pressure;BME280_temperature;BME280_humidity;BME280_pressure;Samples;Min_cycle;Max_cycle;Signal;HPM_P1;HPM_P2
2021/10/18 00:02:02;;;;;;;9.13;1.92;;;15.10;68.20;;;;;;5015773;28;20116;-72
2021/10/18 00:04:28;;;;;;;5.30;1.60;;;15.10;68.10;;;;;;5015238;28;20021;-72
2021/10/18 00:06:55;;;;;;;2.75;1.35;;;15.10;68.10;;;;;;5015340;28;21568;-72
2021/10/18 00:09:21;;;;;;;6.13;2.38;;;15.00;67.90;;;;;;5016586;28;20108;-72
2021/10/18 00:11:48;;;;;;;3.25;0.90;;;15.00;67.80;;;;;;4997376;28;20029;-72
2021/10/18 00:14:14;;;;;;;5.20;1.10;;;15.00;67.70;;;;;;5018992;28;20032;-73
2021/10/18 00:16:41;;;;;;;7.28;1.30;;;15.00;67.70;;;;;;5018139;28;20023;-72
2021/10/18 00:19:09;;;;;;;4.13;1.50;;;15.00;67.50;;;;;;5012936;28;20143;-72
2021/10/18 00:21:35;;;;;;;3.05;1.25;;;15.10;67.80;;;;;;5017863;28;20032;-72
2021/10/18 00:24:02;;;;;;;4.53;1.10;;;15.00;68.30;;;;;;5018584;28;20041;-72
2021/10/18 00:26:29;;;;;;;7.05;1.77;;;15.00;67.80;;;;;;5018137;28;20052;-72
2021/10/18 00:28:55;;;;;;;9.48;1.38;;;15.00;67.70;;;;;;4997090;28;20369;-73
2021/10/18 00:31:22;;;;;;;5.05;1.40;;;15.00;67.80;;;;;;5017033;28;20828;-72
2021/10/18 00:33:49;;;;;;;4.57;1.40;;;15.00;68.00;;;;;;5017763;28;20084;-72
2021/10/18 00:36:15;;;;;;;4.20;1.77;;;15.00;68.20;;;;;;5015575;28;20026;-72
2021/10/18 00:38:42;;;;;;;8.40;1.50;;;14.90;67.90;;;;;;5016140;28;20053;-73
2021/10/18 00:41:09;;;;;;;4.55;1.58;;;14.90;68.10;;;;;;5017080;28;20058;-72
2021/10/18 00:43:36;;;;;;;6.00;2.17;;;14.90;68.10;;;;;;5015310;28;20462;-73
2021/10/18 00:46:02;;;;;;;4.82;1.60;;;14.90;68.30;;;;;;5014700;28;21025;-73
2021/10/18 00:48:29;;;;;;;8.85;2.28;;;14.80;68.50;;;;;;5014758;28;21144;-74
2021/10/18 00:50:57;;;;;;;9.48;2.53;;;14.80;68.60;;;;;;5013793;28;20006;-72
2021/10/18 00:53:26;;;;;;;5.55;2.17;;;14.80;68.90;;;;;;5018786;28;20022;-72
2021/10/18 00:55:54;;;;;;;3.25;1.52;;;14.80;69.10;;;;;;5014201;28;20026;-71
2021/10/18 00:58:22;;;;;;;10.98;2.83;;;14.70;69.20;;;;;;5014687;28;20052;-73
2021/10/18 01:00:49;;;;;;;6.68;2.92;;;14.70;69.30;;;;;;5016495;28;20491;-72
2021/10/18 01:03:16;;;;;;;5.72;2.42;;;14.80;69.40;;;;;;5014862;28;20045;-73
2021/10/18 01:05:43;;;;;;;8.93;2.50;;;14.70;69.30;;;;;;5017230;28;20025;-72
2021/10/18 01:08:10;;;;;;;5.93;1.95;;;14.70;69.50;;;;;;5014109;28;20044;-71
2021/10/18 01:10:37;;;;;;;11.45;2.70;;;14.70;69.60;;;;;;5019281;28;20022;-72
2021/10/18 01:13:04;;;;;;;8.05;2.70;;;14.70;69.70;;;;;;5014903;28;20083;-72
2021/10/18 01:15:32;;;;;;;7.50;2.95;;;14.70;69.80;;;;;;5016853;28;20030;-71
2021/10/18 01:17:59;;;;;;;7.55;3.58;;;14.60;69.90;;;;;;5013808;28;20377;-73
2021/10/18 01:20:39;;;;;;;6.65;3.17;;;14.60;69.80;;;;;;5017748;28;20040;-72
2021/10/18 01:23:09;;;;;;;6.90;3.30;;;14.60;70.10;;;;;;5018039;28;20412;-71
2021/10/18 01:25:36;;;;;;;9.88;2.97;;;14.60;70.30;;;;;;5015486;28;20025;-72
2021/10/18 01:28:04;;;;;;;9.05;2.33;;;14.60;70.40;;;;;;5014306;28;20022;-71
2021/10/18 01:30:31;;;;;;;7.88;2.20;;;14.60;70.40;;;;;;5014535;28;20037;-72
2021/10/18 01:32:57;;;;;;;8.45;3.28;;;14.60;70.40;;;;;;5013273;28;20573;-72
2021/10/18 01:35:24;;;;;;;6.63;2.88;;;14.50;70.20;;;;;;5014740;28;20161;-71
2021/10/18 01:37:51;;;;;;;5.82;2.90;;;14.50;70.30;;;;;;5016079;28;20044;-72
2021/10/18 01:40:22;;;;;;;6.80;2.20;;;14.50;70.60;;;;;;5015729;28;20030;-72
2021/10/18 01:42:49;;;;;;;6.35;3.00;;;14.50;70.50;;;;;;5013127;28;20014;-72
2021/10/18 01:45:18;;;;;;;9.65;2.80;;;14.50;70.30;;;;;;5015967;28;20021;-72
2021/10/18 01:47:45;;;;;;;4.18;2.88;;;14.50;70.30;;;;;;5017250;28;20037;-72
2021/10/18 01:50:17;;;;;;;6.50;2.05;;;14.50;70.40;;;;;;5017123;28;20037;-72
2021/10/18 01:52:47;;;;;;;9.80;2.53;;;14.50;70.50;;;;;;5018465;28;20038;-72
2021/10/18 01:55:16;;;;;;;6.18;2.38;;;14.50;70.40;;;;;;5018396;28;20048;-72
2021/10/18 01:57:43;;;;;;;5.25;1.50;;;14.50;70.50;;;;;;5018272;28;20033;-72
2021/10/18 02:00:10;;;;;;;6.32;1.50;;;14.50;70.30;;;;;;5018794;28;20427;-72
2021/10/18 02:02:37;;;;;;;7.72;1.98;;;14.50;70.40;;;;;;5018083;28;20060;-73
2021/10/18 02:05:04;;;;;;;6.65;1.75;;;14.50;70.20;;;;;;5017833;28;20330;-72
2021/10/18 02:07:30;;;;;;;8.63;2.53;;;14.40;70.00;;;;;;5017837;28;20513;-74
2021/10/18 02:09:59;;;;;;;7.30;1.38;;;14.40;70.10;;;;;;5016275;28;20123;-72
2021/10/18 02:12:26;;;;;;;3.55;1.48;;;14.40;70.80;;;;;;5021793;28;20574;-73
2021/10/18 02:14:53;;;;;;;5.90;2.20;;;14.40;70.10;;;;;;5021364;28;20021;-72
2021/10/18 02:17:19;;;;;;;9.00;1.90;;;14.40;70.20;;;;;;5014331;28;20022;-72
2021/10/18 02:19:46;;;;;;;5.70;1.80;;;14.40;70.30;;;;;;5021383;28;20033;-73
2021/10/18 02:22:12;;;;;;;6.63;1.52;;;14.40;70.40;;;;;;5017136;28;20108;-72
2021/10/18 02:24:39;;;;;;;5.22;1.35;;;14.30;70.30;;;;;;5021354;28;20048;-72
2021/10/18 02:27:05;;;;;;;8.30;2.38;;;14.30;70.30;;;;;;5016756;28;20045;-72
2021/10/18 02:29:32;;;;;;;6.95;2.40;;;14.30;70.20;;;;;;5020370;28;20148;-73
2021/10/18 02:31:58;;;;;;;6.65;1.88;;;14.30;70.20;;;;;;5018211;28;20033;-72
2021/10/18 02:34:25;;;;;;;5.82;2.08;;;14.20;70.00;;;;;;5020714;28;20049;-72
2021/10/18 02:36:51;;;;;;;2.63;1.38;;;14.20;69.90;;;;;;5021568;28;20039;-72
2021/10/18 02:39:18;;;;;;;7.75;1.50;;;14.20;69.90;;;;;;5017076;28;20033;-72
2021/10/18 02:41:44;;;;;;;7.30;1.60;;;14.10;69.80;;;;;;5018337;28;20116;-72
2021/10/18 02:44:11;;;;;;;8.85;1.58;;;14.20;69.70;;;;;;5016955;28;20022;-72
2021/10/18 02:46:38;;;;;;;4.85;2.10;;;14.10;69.60;;;;;;5019730;28;21332;-71
2021/10/18 02:49:04;;;;;;;4.82;1.65;;;14.20;69.70;;;;;;5019956;28;20100;-72
2021/10/18 02:51:30;;;;;;;13.35;2.63;;;14.10;69.70;;;;;;5017564;28;20080;-71
2021/10/18 02:53:57;;;;;;;4.00;1.05;;;14.10;69.50;;;;;;5019719;28;20508;-71
2021/10/18 02:56:23;;;;;;;6.70;2.10;;;14.10;69.70;;;;;;5018347;28;20526;-72
2021/10/18 02:58:50;;;;;;;22.95;3.15;;;14.10;69.80;;;;;;5015371;28;20547;-72
2021/10/18 03:01:16;;;;;;;6.97;1.58;;;14.10;70.20;;;;;;5014968;28;20413;-72
2021/10/18 03:03:43;;;;;;;5.38;1.67;;;14.00;69.90;;;;;;5017381;28;20033;-72
2021/10/18 03:06:09;;;;;;;8.52;1.50;;;14.00;69.60;;;;;;5016750;28;20396;-72
2021/10/18 03:08:36;;;;;;;5.32;1.48;;;14.00;69.40;;;;;;5016977;28;20112;-72
2021/10/18 03:11:02;;;;;;;6.63;2.53;;;13.90;69.40;;;;;;5018047;28;20010;-72
2021/10/18 03:13:29;;;;;;;11.38;3.35;;;13.90;69.60;;;;;;5016180;28;20097;-72
2021/10/18 03:15:56;;;;;;;10.98;4.00;;;13.90;69.50;;;;;;5018366;28;20041;-72
2021/10/18 03:18:22;;;;;;;11.38;4.95;;;13.80;69.50;;;;;;5016916;28;20029;-72
2021/10/18 03:20:49;;;;;;;6.85;4.25;;;13.80;69.70;;;;;;5018782;28;20109;-72
2021/10/18 03:23:15;;;;;;;5.50;3.58;;;13.80;69.70;;;;;;5016397;28;20040;-72
2021/10/18 03:25:42;;;;;;;8.70;3.00;;;13.80;69.50;;;;;;5019515;28;20103;-72
2021/10/18 03:28:08;;;;;;;7.85;2.00;;;13.70;70.10;;;;;;5017471;28;20133;-72
2021/10/18 03:30:35;;;;;;;7.65;3.13;;;13.70;69.40;;;;;;5018176;28;20105;-72
2021/10/18 03:33:01;;;;;;;5.68;2.08;;;13.70;69.40;;;;;;5017721;28;20073;-72
2021/10/18 03:35:28;;;;;;;53.35;33.75;;;13.70;70.10;;;;;;5018073;28;20028;-71
2021/10/18 03:37:54;;;;;;;9.70;4.35;;;13.70;69.70;;;;;;5017102;28;20113;-73
2021/10/18 03:40:21;;;;;;;7.80;2.33;;;13.70;69.20;;;;;;5016249;28;20502;-71
2021/10/18 03:42:48;;;;;;;6.40;1.83;;;13.80;69.30;;;;;;5000060;28;20397;-71
2021/10/18 03:45:15;;;;;;;5.43;1.50;;;13.80;69.30;;;;;;5016722;28;20021;-71
2021/10/18 03:47:42;;;;;;;4.50;1.10;;;13.80;69.40;;;;;;5016948;28;20038;-72
2021/10/18 03:50:09;;;;;;;6.22;1.42;;;13.80;69.30;;;;;;5015737;28;20032;-71
2021/10/18 03:52:36;;;;;;;6.05;0.90;;;13.80;69.30;;;;;;5018414;28;20025;-74
2021/10/18 03:55:03;;;;;;;6.50;2.42;;;13.80;69.40;;;;;;5016996;28;20125;-75
2021/10/18 03:57:29;;;;;;;9.35;1.52;;;13.90;69.30;;;;;;5014209;28;20832;-74
2021/10/18 03:59:56;;;;;;;5.95;1.42;;;13.90;69.20;;;;;;5019972;28;20095;-75
2021/10/18 04:02:22;;;;;;;6.60;1.23;;;13.90;69.30;;;;;;5013902;28;20021;-76
2021/10/18 04:04:49;;;;;;;6.35;3.75;;;14.00;69.30;;;;;;5018709;28;20028;-74
2021/10/18 04:07:15;;;;;;;38.72;24.30;;;14.00;69.40;;;;;;5015868;28;20228;-73
2021/10/18 04:09:45;;;;;;;11.55;10.13;;;13.90;69.40;;;;;;5015095;28;20105;-75
2021/10/18 04:12:12;;;;;;;6.35;2.58;;;14.00;69.40;;;;;;5018646;28;20032;-74
2021/10/18 04:14:39;;;;;;;4.30;1.35;;;14.00;69.40;;;;;;5016774;28;21144;-77
2021/10/18 04:17:06;;;;;;;7.03;1.50;;;14.00;69.20;;;;;;5013578;28;20037;-74
2021/10/18 04:19:32;;;;;;;4.65;1.90;;;14.00;69.10;;;;;;5017041;28;20075;-81
2021/10/18 04:21:59;;;;;;;21.38;14.10;;;14.00;69.10;;;;;;5000213;28;20047;-73
2021/10/18 04:24:25;;;;;;;11.60;4.95;;;14.00;69.30;;;;;;5002885;28;20039;-76
2021/10/18 04:26:52;;;;;;;5.93;1.92;;;14.00;69.30;;;;;;5013806;28;20088;-72
2021/10/18 04:29:18;;;;;;;7.50;1.52;;;14.00;69.30;;;;;;5003237;28;20030;-74
2021/10/18 04:31:45;;;;;;;6.38;2.10;;;14.00;69.10;;;;;;5018874;28;20013;-73
2021/10/18 04:34:11;;;;;;;7.22;2.17;;;14.10;69.00;;;;;;5019117;28;20095;-73
2021/10/18 04:36:38;;;;;;;4.07;1.25;;;14.10;69.10;;;;;;5017286;28;20057;-73
2021/10/18 04:39:04;;;;;;;3.95;1.73;;;14.10;69.10;;;;;;5014961;28;20034;-72
2021/10/18 04:41:31;;;;;;;7.28;1.80;;;14.10;69.00;;;;;;5017575;28;20456;-72
2021/10/18 04:43:57;;;;;;;8.45;2.75;;;14.20;69.30;;;;;;5017832;28;20036;-72
2021/10/18 04:46:24;;;;;;;5.25;1.20;;;14.20;69.50;;;;;;5016233;28;20427;-73
2021/10/18 04:48:50;;;;;;;11.88;2.58;;;14.30;69.40;;;;;;5013744;28;20447;-74
2021/10/18 04:51:17;;;;;;;6.55;1.90;;;14.30;69.40;;;;;;5020895;28;20037;-74
2021/10/18 04:53:43;;;;;;;6.45;1.95;;;14.40;69.40;;;;;;5018011;28;20090;-76
2021/10/18 04:56:09;;;;;;;3.53;2.63;;;14.40;69.30;;;;;;5021996;28;20076;-74
2021/10/18 04:58:36;;;;;;;6.93;1.95;;;14.40;69.30;;;;;;5021914;28;20117;-74
2021/10/18 05:01:03;;;;;;;9.32;2.22;;;14.40;69.40;;;;;;5029974;28;20028;-75
2021/10/18 05:03:29;;;;;;;7.68;2.60;;;14.40;69.50;;;;;;5021037;28;20391;-76
2021/10/18 05:05:55;;;;;;;7.90;2.70;;;14.40;69.50;;;;;;5025133;28;20033;-75
2021/10/18 05:08:22;;;;;;;7.78;2.30;;;14.50;69.60;;;;;;5020561;28;20485;-74
2021/10/18 05:10:48;;;;;;;7.60;2.55;;;14.40;69.70;;;;;;5019826;28;20060;-75
2021/10/18 05:13:15;;;;;;;10.35;3.08;;;14.40;69.70;;;;;;5024173;28;20064;-75
2021/10/18 05:15:42;;;;;;;6.70;2.10;;;14.50;69.90;;;;;;5022596;28;20358;-76
2021/10/18 05:18:09;;;;;;;6.15;2.33;;;14.50;69.80;;;;;;5026226;28;20105;-75
2021/10/18 05:20:36;;;;;;;7.97;2.70;;;14.60;70.00;;;;;;5022060;28;20461;-74
2021/10/18 05:23:02;;;;;;;4.97;2.33;;;14.60;70.00;;;;;;5030743;28;20029;-75
2021/10/18 05:25:30;;;;;;;4.47;1.58;;;14.60;69.90;;;;;;5027550;28;20021;-75
2021/10/18 05:27:57;;;;;;;4.40;1.25;;;14.70;69.60;;;;;;5025792;28;20056;-74
2021/10/18 05:30:27;;;;;;;7.43;1.83;;;14.70;69.50;;;;;;5025970;28;20014;-75
2021/10/18 05:32:55;;;;;;;4.35;2.25;;;14.70;69.70;;;;;;5027657;28;20081;-74
2021/10/18 05:35:22;;;;;;;4.00;1.52;;;14.80;69.50;;;;;;5029049;28;20029;-75
2021/10/18 05:37:49;;;;;;;2.15;0.80;;;14.80;69.10;;;;;;5032386;28;20109;-76
2021/10/18 05:40:17;;;;;;;3.55;1.50;;;14.90;68.90;;;;;;5027966;28;20026;-74
2021/10/18 05:42:44;;;;;;;4.88;1.13;;;14.90;68.70;;;;;;5029845;28;20040;-74
2021/10/18 05:45:11;;;;;;;2.28;1.05;;;14.90;68.60;;;;;;5027767;28;20489;-74
2021/10/18 05:47:55;;;;;;;3.35;1.10;;;15.00;68.40;;;;;;5015023;28;20055;-74
2021/10/18 05:50:25;;;;;;;3.13;1.10;;;15.10;67.70;;;;;;5021508;28;20436;-76
2021/10/18 05:52:51;;;;;;;3.17;1.30;;;15.10;67.50;;;;;;5028724;28;20028;-74
2021/10/18 05:55:18;;;;;;;4.43;0.95;;;15.20;67.30;;;;;;5028540;28;20029;-75
2021/10/18 05:57:56;;;;;;;3.15;0.65;;;15.20;66.90;;;;;;5024258;28;20034;-74
2021/10/18 06:00:24;;;;;;;2.95;0.77;;;15.20;67.10;;;;;;5030877;28;20068;-74
2021/10/18 06:02:52;;;;;;;3.80;0.88;;;15.30;66.50;;;;;;5029083;28;20029;-74
2021/10/18 06:05:19;;;;;;;5.20;0.82;;;15.30;66.10;;;;;;5033173;28;20028;-75
2021/10/18 06:07:46;;;;;;;5.40;1.00;;;15.40;65.80;;;;;;5026742;28;20034;-75
2021/10/18 06:10:14;;;;;;;2.92;1.40;;;15.40;66.00;;;;;;5027387;28;20029;-74
2021/10/18 06:12:41;;;;;;;2.35;1.55;;;15.50;65.90;;;;;;5029687;28;20029;-74
2021/10/18 06:15:08;;;;;;;5.13;1.10;;;15.50;65.70;;;;;;5023373;28;20316;-74
2021/10/18 06:17:35;;;;;;;4.32;1.02;;;15.60;65.50;;;;;;5028756;28;20029;-75
2021/10/18 06:20:02;;;;;;;7.90;1.00;;;15.60;64.90;;;;;;5022523;28;20029;-74
2021/10/18 06:22:33;;;;;;;3.97;0.88;;;15.70;64.60;;;;;;5020228;28;20018;-74
2021/10/18 06:25:02;;;;;;;3.92;0.80;;;15.70;64.00;;;;;;5008773;28;20400;-74
2021/10/18 06:27:29;;;;;;;1.77;0.65;;;15.70;63.30;;;;;;5000095;28;20124;-75
2021/10/18 06:29:55;;;;;;;4.05;1.00;;;15.80;62.50;;;;;;5022739;28;20026;-74
2021/10/18 06:32:22;;;;;;;5.80;1.58;;;15.90;62.10;;;;;;5021846;28;20022;-74
2021/10/18 06:34:48;;;;;;;1.88;1.02;;;15.90;61.90;;;;;;5025159;28;20045;-74
2021/10/18 06:37:15;;;;;;;1.13;0.50;;;16.00;61.90;;;;;;5024410;28;20014;-75
2021/10/18 06:39:41;;;;;;;3.72;1.00;;;16.00;60.80;;;;;;5027411;28;20018;-73
2021/10/18 06:42:08;;;;;;;5.70;0.95;;;16.10;60.60;;;;;;5019400;28;20080;-76
2021/10/18 06:44:34;;;;;;;5.53;0.88;;;16.10;60.80;;;;;;5022203;28;20029;-74
2021/10/18 06:47:01;;;;;;;2.70;0.63;;;16.10;60.70;;;;;;5020065;28;20056;-74
2021/10/18 06:49:28;;;;;;;5.32;1.45;;;16.20;60.10;;;;;;5022555;28;20026;-75
2021/10/18 06:51:56;;;;;;;2.95;0.63;;;16.30;58.10;;;;;;5023517;28;20053;-77
2021/10/18 06:54:23;;;;;;;1.55;0.63;;;16.30;58.00;;;;;;5023879;28;20010;-77
2021/10/18 06:56:51;;;;;;;3.00;0.60;;;16.40;58.40;;;;;;5022178;28;20021;-75
2021/10/18 06:59:18;;;;;;;1.23;0.65;;;16.40;58.30;;;;;;5023558;28;20029;-74
2021/10/18 07:01:44;;;;;;;6.07;1.63;;;16.40;58.70;;;;;;5027046;28;20697;-78
2021/10/18 07:04:12;;;;;;;1.10;0.40;;;16.50;58.70;;;;;;5021635;28;20504;-76
2021/10/18 07:06:39;;;;;;;2.22;0.65;;;16.50;57.80;;;;;;5025314;28;20037;-75
2021/10/18 07:09:05;;;;;;;1.90;0.60;;;16.60;57.40;;;;;;5022177;28;20105;-76
2021/10/18 07:11:35;;;;;;;2.97;0.50;;;16.60;57.70;;;;;;5024239;28;20477;-76
2021/10/18 07:14:01;;;;;;;5.95;1.00;;;16.70;58.00;;;;;;5022855;28;20026;-78
2021/10/18 07:16:28;;;;;;;4.55;0.63;;;16.80;57.60;;;;;;5024532;28;20465;-74
2021/10/18 07:18:54;;;;;;;2.90;0.50;;;16.80;57.80;;;;;;5021689;28;20021;-77
2021/10/18 07:21:21;;;;;;;1.75;0.50;;;16.90;58.10;;;;;;5022893;28;20067;-73
2021/10/18 07:23:51;;;;;;;1.45;0.70;;;16.90;58.10;;;;;;5024285;28;20029;-75
2021/10/18 07:26:19;;;;;;;3.30;0.82;;;16.90;58.40;;;;;;5024894;28;20117;-77
2021/10/18 07:28:45;;;;;;;2.78;0.57;;;17.00;58.80;;;;;;5022737;28;20029;-74
2021/10/18 07:31:12;;;;;;;4.25;0.60;;;17.10;58.60;;;;;;5025756;28;20023;-75
2021/10/18 07:33:39;;;;;;;2.22;0.63;;;17.10;58.20;;;;;;5018879;28;20038;-74
2021/10/18 07:36:10;;;;;;;3.97;0.60;;;17.10;58.20;;;;;;5019311;28;20508;-76
2021/10/18 07:38:38;;;;;;;3.95;0.60;;;17.20;57.50;;;;;;5020128;28;20021;-75
2021/10/18 07:41:06;;;;;;;3.35;0.80;;;17.30;56.20;;;;;;5004532;28;20025;-78
2021/10/18 07:43:33;;;;;;;1.33;0.60;;;17.40;56.00;;;;;;5023732;28;20036;-75
2021/10/18 07:45:59;;;;;;;2.47;0.80;;;17.40;55.60;;;;;;5014616;28;20128;-75
2021/10/18 07:48:26;;;;;;;2.58;0.77;;;17.40;55.60;;;;;;5020274;28;20110;-76
2021/10/18 07:50:53;;;;;;;2.05;1.20;;;17.50;55.40;;;;;;5019064;28;20562;-75
2021/10/18 07:53:19;;;;;;;4.88;0.57;;;17.60;55.40;;;;;;5016673;28;20377;-74
2021/10/18 07:55:46;;;;;;;3.67;0.70;;;17.60;54.90;;;;;;5016927;28;20635;-75
2021/10/18 07:58:12;;;;;;;4.22;0.80;;;17.60;55.30;;;;;;5010246;28;20037;-76
2021/10/18 08:00:38;;;;;;;1.55;1.10;;;17.80;55.50;;;;;;5021298;28;20053;-74
2021/10/18 08:03:05;;;;;;;3.28;1.00;;;17.80;55.70;;;;;;5024393;28;20445;-73
2021/10/18 08:05:32;;;;;;;4.00;0.93;;;17.90;54.90;;;;;;5006339;28;20040;-78
2021/10/18 08:07:58;;;;;;;2.83;0.70;;;17.90;54.40;;;;;;5020164;28;20031;-75
2021/10/18 08:10:25;;;;;;;4.78;0.80;;;18.00;54.40;;;;;;5017683;28;20028;-77
2021/10/18 08:12:53;;;;;;;3.63;0.80;;;18.10;54.30;;;;;;5019043;28;20014;-74
2021/10/18 08:15:20;;;;;;;5.15;0.73;;;18.20;54.90;;;;;;5019103;28;20021;-75
2021/10/18 08:17:47;;;;;;;5.32;1.02;;;18.20;54.00;;;;;;5015724;28;20025;-73
2021/10/18 08:20:14;;;;;;;2.47;1.15;;;18.20;53.90;;;;;;5019144;28;20468;-74
2021/10/18 08:22:40;;;;;;;8.43;0.85;;;18.20;54.00;;;;;;5017871;28;20064;-76
2021/10/18 08:25:07;;;;;;;3.30;2.13;;;18.30;54.10;;;;;;5013846;28;20022;-78
2021/10/18 08:27:34;;;;;;;1.80;0.90;;;18.30;54.50;;;;;;5020938;28;20034;-74
2021/10/18 08:30:00;;;;;;;5.65;0.90;;;18.40;54.60;;;;;;5015903;28;20029;-74
2021/10/18 08:32:30;;;;;;;4.10;0.85;;;18.40;53.90;;;;;;5018929;28;20025;-75
2021/10/18 08:34:57;;;;;;;3.55;1.40;;;18.50;54.20;;;;;;5016890;28;20021;-74
2021/10/18 08:38:15;;;;;;;2.05;0.90;;;18.50;53.30;;;;;;5020900;28;20036;-75
2021/10/18 08:40:11;;;;;;;1.08;0.93;;;18.60;53.00;;;;;;5013142;28;20117;-74
2021/10/18 08:42:56;;;;;;;9.43;1.00;;;18.60;52.40;;;;;;5014841;28;20018;-76
2021/10/18 08:45:23;;;;;;;1.30;0.50;;;18.70;52.80;;;;;;5015377;28;20440;-75
2021/10/18 08:47:52;;;;;;;5.43;0.93;;;18.80;53.00;;;;;;5017016;28;20403;-75
2021/10/18 08:50:19;;;;;;;1.88;0.70;;;18.80;53.20;;;;;;5012250;28;20018;-73
2021/10/18 08:52:47;;;;;;;5.28;0.80;;;18.90;52.40;;;;;;5015649;28;20018;-75
2021/10/18 08:55:14;;;;;;;5.18;1.50;;;18.90;51.90;;;;;;5006458;28;20029;-78
2021/10/18 08:57:41;;;;;;;3.92;1.00;;;19.00;51.90;;;;;;5015090;28;20504;-74
2021/10/18 09:00:28;;;;;;;5.72;0.68;;;19.00;52.30;;;;;;5014102;28;20752;-78
2021/10/18 09:02:57;;;;;;;3.20;0.70;;;19.10;52.20;;;;;;5017857;28;20032;-74
2021/10/18 09:05:24;;;;;;;3.10;0.60;;;19.20;51.30;;;;;;5016780;28;20101;-77
2021/10/18 09:07:50;;;;;;;2.63;0.70;;;19.30;50.60;;;;;;5022079;28;20033;-75
2021/10/18 09:10:16;;;;;;;7.63;1.02;;;19.30;51.30;;;;;;5022960;28;20068;-74
2021/10/18 09:12:45;;;;;;;3.40;0.85;;;19.40;51.50;;;;;;5028497;28;20017;-77
2021/10/18 09:15:20;;;;;;;5.00;1.13;;;19.40;51.10;;;;;;5006869;28;20423;-75
2021/10/18 09:17:53;;;;;;;2.63;0.80;;;19.50;51.20;;;;;;5021577;28;20046;-73
2021/10/18 09:20:31;;;;;;;6.75;0.82;;;19.60;50.50;;;;;;5024810;28;20385;-75
2021/10/18 09:23:24;;;;;;;2.00;0.65;;;19.60;50.80;;;;;;5026138;28;20021;-77
2021/10/18 09:26:02;;;;;;;2.08;1.08;;;19.60;50.50;;;;;;5021512;28;20022;-74
2021/10/18 09:28:29;;;;;;;2.53;0.80;;;19.70;50.30;;;;;;5025608;28;20025;-74
2021/10/18 09:30:57;;;;;;;6.78;1.20;;;19.80;50.80;;;;;;5022956;28;20030;-74
2021/10/18 09:33:39;;;;;;;13.93;0.77;;;19.90;50.10;;;;;;5024386;28;20046;-74
2021/10/18 09:36:11;;;;;;;2.55;0.70;;;20.00;49.90;;;;;;5023359;28;20025;-74
2021/10/18 09:38:38;;;;;;;3.10;0.80;;;20.00;49.60;;;;;;5024009;28;20029;-76
2021/10/18 09:41:05;;;;;;;3.80;0.90;;;20.10;50.40;;;;;;5023916;28;20483;-78
2021/10/18 10:53:33;;;;;;;2.88;1.05;;;21.50;47.10;;;;;;5015782;28;20048;-79
2021/10/18 10:56:18;;;;;;;2.88;1.00;;;21.50;46.40;;;;;;5028609;28;20487;-79
2021/10/18 10:58:52;;;;;;;4.40;1.20;;;21.60;45.70;;;;;;5026368;28;20032;-79
2021/10/18 11:01:55;;;;;;;5.20;1.58;;;21.60;46.20;;;;;;5029054;28;20013;-78
2021/10/18 11:04:31;;;;;;;7.18;1.38;;;21.70;46.00;;;;;;5023986;28;20152;-78
2021/10/18 11:07:05;;;;;;;3.28;1.45;;;21.70;46.40;;;;;;5023042;28;20099;-80
2021/10/18 11:10:23;;;;;;;4.00;1.08;;;21.80;45.80;;;;;;5020510;28;20528;-74
2021/10/18 11:13:29;;;;;;;3.25;1.10;;;21.80;46.20;;;;;;5017696;28;20364;-79
2021/10/18 11:16:38;;;;;;;4.97;1.05;;;21.90;46.00;;;;;;5016948;28;20038;-72
2021/10/18 11:19:44;;;;;;;4.50;1.45;;;21.90;46.00;;;;;;5014604;28;20088;-76
2021/10/18 11:22:11;;;;;;;4.72;1.30;;;22.00;45.50;;;;;;5015721;28;20109;-77
2021/10/18 11:24:39;;;;;;;4.70;1.15;;;22.00;45.70;;;;;;5007463;28;20026;-73
2021/10/18 11:27:07;;;;;;;4.05;0.75;;;22.00;46.00;;;;;;5017427;28;20497;-77
2021/10/18 11:29:34;;;;;;;9.20;2.90;;;22.00;46.10;;;;;;5016428;28;20813;-74
2021/10/18 11:32:10;;;;;;;7.18;1.10;;;22.00;46.50;;;;;;5017442;28;20028;-74
2021/10/18 11:34:38;;;;;;;3.38;2.15;;;22.00;46.10;;;;;;5018309;28;20484;-77
2021/10/18 11:37:04;;;;;;;13.65;10.73;;;22.00;46.50;;;;;;5016714;28;20571;-76
2021/10/18 11:39:33;;;;;;;5.38;2.10;;;22.00;47.00;;;;;;5012660;28;20038;-75
2021/10/18 11:41:59;;;;;;;4.85;0.98;;;22.10;47.20;;;;;;5018071;28;20057;-79
2021/10/18 11:44:55;;;;;;;6.85;0.90;;;22.10;46.80;;;;;;5017772;28;20021;-79
2021/10/18 11:47:33;;;;;;;2.53;0.70;;;22.20;46.90;;;;;;5020397;28;20036;-80
2021/10/18 11:50:21;;;;;;;8.63;1.17;;;22.20;46.60;;;;;;5014064;28;20046;-76
2021/10/18 11:53:00;;;;;;;4.25;0.95;;;22.30;46.00;;;;;;5016456;28;20026;-74
2021/10/18 11:55:39;;;;;;;4.32;1.45;;;22.30;45.50;;;;;;5016338;28;20406;-77
2021/10/18 11:58:07;;;;;;;3.90;0.93;;;22.30;45.90;;;;;;4998941;28;20076;-76
2021/10/18 12:00:41;;;;;;;15.43;6.18;;;22.30;45.50;;;;;;5022647;28;20049;-75
2021/10/18 12:03:10;;;;;;;5.60;1.63;;;22.30;46.00;;;;;;5015121;28;20385;-81
2021/10/18 12:05:57;;;;;;;4.70;1.48;;;22.30;46.50;;;;;;5021366;28;20259;-72
2021/10/18 12:08:38;;;;;;;4.53;0.82;;;22.30;47.00;;;;;;5014584;28;20038;-80
2021/10/18 12:11:07;;;;;;;4.70;0.90;;;22.30;46.30;;;;;;5017037;28;20010;-74
2021/10/18 12:13:39;;;;;;;3.58;1.00;;;22.30;46.20;;;;;;5026512;28;20071;-75
2021/10/18 12:16:07;;;;;;;2.55;1.63;;;22.20;46.40;;;;;;5008313;28;20021;-77
2021/10/18 12:18:50;;;;;;;7.32;0.80;;;22.30;46.90;;;;;;5023510;28;20108;-75
2021/10/18 12:21:39;;;;;;;1.95;0.60;;;22.30;46.50;;;;;;5025427;28;20439;-76
2021/10/18 12:24:08;;;;;;;4.00;0.80;;;22.40;46.10;;;;;;5020721;28;20017;-75
2021/10/18 12:26:43;;;;;;;4.78;0.77;;;22.40;46.40;;;;;;5022844;28;20083;-76
2021/10/18 12:29:14;;;;;;;8.93;1.05;;;22.40;45.60;;;;;;5024944;28;20025;-72
2021/10/18 12:31:42;;;;;;;1.65;0.70;;;22.40;45.50;;;;;;5022358;28;20072;-75
2021/10/18 12:34:17;;;;;;;5.95;0.73;;;22.30;45.80;;;;;;5021783;28;20056;-74
2021/10/18 12:37:01;;;;;;;1.42;0.60;;;22.40;46.30;;;;;;5025169;28;20025;-77
2021/10/18 12:39:47;;;;;;;4.25;0.70;;;22.40;45.80;;;;;;5022327;28;20781;-80
2021/10/18 12:42:29;;;;;;;7.50;1.48;;;22.40;46.10;;;;;;5020954;28;20103;-76
2021/10/18 12:45:01;;;;;;;2.25;1.00;;;22.40;45.90;;;;;;5026909;28;20030;-82
2021/10/18 12:47:29;;;;;;;4.00;1.10;;;22.40;45.80;;;;;;5023491;28;20026;-77
2021/10/18 12:50:23;;;;;;;5.82;0.55;;;22.40;46.20;;;;;;5021292;28;20029;-76
2021/10/18 12:52:57;;;;;;;8.63;0.90;;;22.50;45.90;;;;;;5023190;28;20096;-74
2021/10/18 12:55:26;;;;;;;4.25;0.90;;;22.50;45.70;;;;;;5022423;28;20021;-76
2021/10/18 12:57:54;;;;;;;5.18;0.98;;;22.50;45.60;;;;;;5023067;28;20034;-75
2021/10/18 13:00:31;;;;;;;4.18;0.77;;;22.50;46.00;;;;;;5025310;28;20017;-76
2021/10/18 13:03:19;;;;;;;2.50;0.88;;;22.50;46.10;;;;;;5023442;28;20145;-76
2021/10/18 13:05:59;;;;;;;4.18;1.10;;;22.50;46.40;;;;;;5024562;28;20482;-75
2021/10/18 13:08:27;;;;;;;2.72;0.90;;;22.50;46.50;;;;;;5024141;28;20052;-75
2021/10/18 13:10:54;;;;;;;3.00;0.65;;;22.50;46.30;;;;;;5023686;28;20033;-77
2021/10/18 13:13:23;;;;;;;11.38;0.90;;;22.50;46.10;;;;;;5026072;28;20358;-76
2021/10/18 13:15:53;;;;;;;7.45;1.33;;;22.50;46.30;;;;;;5025158;28;20112;-74
2021/10/18 13:18:20;;;;;;;1.88;0.75;;;22.50;46.10;;;;;;5025583;28;20017;-76
2021/10/18 13:20:47;;;;;;;3.42;0.95;;;22.50;46.10;;;;;;5023700;28;20469;-78
2021/10/18 13:23:16;;;;;;;5.93;1.10;;;22.50;47.10;;;;;;5027808;28;20573;-75
2021/10/18 13:25:44;;;;;;;2.22;0.93;;;22.50;47.10;;;;;;5023729;28;20096;-77
2021/10/18 13:28:13;;;;;;;6.75;1.00;;;22.60;47.20;;;;;;5025515;28;20429;-76
2021/10/18 13:30:40;;;;;;;5.35;1.65;;;22.60;46.90;;;;;;5024556;28;20056;-76
2021/10/18 13:33:07;;;;;;;7.10;0.85;;;22.60;47.00;;;;;;5026251;28;20041;-76
2021/10/18 13:35:33;;;;;;;3.15;0.98;;;22.60;47.00;;;;;;5023311;28;20030;-75
2021/10/18 13:38:01;;;;;;;3.58;1.10;;;22.60;47.40;;;;;;5028367;28;20495;-76
2021/10/18 13:40:29;;;;;;;4.80;1.20;;;22.50;47.30;;;;;;5025278;28;20104;-75
2021/10/18 13:42:55;;;;;;;4.45;0.88;;;22.50;47.20;;;;;;5026235;28;20380;-74
2021/10/18 13:45:24;;;;;;;2.65;0.70;;;22.50;47.50;;;;;;5018485;28;20364;-76
2021/10/18 13:47:51;;;;;;;2.83;1.15;;;22.40;46.90;;;;;;5019665;28;20068;-74
2021/10/18 13:50:19;;;;;;;2.80;2.03;;;22.40;47.40;;;;;;5019387;28;20014;-75
2021/10/18 13:52:52;;;;;;;1.05;0.60;;;22.40;47.40;;;;;;5024949;28;20018;-73
2021/10/18 13:55:20;;;;;;;4.55;0.80;;;22.40;47.10;;;;;;5030452;28;20021;-74
2021/10/18 13:57:47;;;;;;;4.57;1.38;;;22.40;47.30;;;;;;5028506;28;20026;-73
2021/10/18 14:00:14;;;;;;;2.75;1.23;;;22.40;47.00;;;;;;5008551;28;20033;-78
2021/10/18 14:02:40;;;;;;;7.00;1.00;;;22.40;47.30;;;;;;5022462;28;20493;-75
2021/10/18 14:05:09;;;;;;;6.63;1.13;;;22.40;47.50;;;;;;5021055;28;20124;-77
2021/10/18 14:07:36;;;;;;;7.65;1.35;;;22.50;47.10;;;;;;5011591;28;20539;-76